sensor_id;sensor_type;location;lat;lon;timestamp;pressure;altitude;pressure_sealevel;temperature;humidity
7268;BME280;3675;43.276;27.962;2024-02-04T00:01:12;98165.25;;;3.54;74.64
7268;BME280;3675;43.276;27.962;2024-02-04T00:03:48;98160.03;;;3.58;74.72
7268;BME280;3675;43.276;27.962;2024-02-04T00:06:22;98164.19;;;3.66;74.39
7268;BME280;3675;43.276;27.962;2024-02-04T00:08:55;98166.75;;;3.66;74.20
7268;BME280;3675;43.276;27.962;2024-02-04T00:11:32;98168.50;;;3.62;74.23
7268;BME280;3675;43.276;27.962;2024-02-04T00:14:04;98167.59;;;3.65;74.21
7268;BME280;3675;43.276;27.962;2024-02-04T00:16:36;98176.09;;;3.67;74.37
7268;BME280;3675;43.276;27.962;2024-02-04T00:19:11;98168.44;;;3.65;74.22
7268;BME280;3675;43.276;27.962;2024-02-04T00:21:43;98166.78;;;3.63;74.47
7268;BME280;3675;43.276;27.962;2024-02-04T00:24:18;98178.69;;;3.65;74.34
7268;BME280;3675;43.276;27.962;2024-02-04T00:26:51;98166.81;;;3.61;74.48
7268;BME280;3675;43.276;27.962;2024-02-04T00:29:25;98174.41;;;3.67;74.24
7268;BME280;3675;43.276;27.962;2024-02-04T00:31:57;98178.66;;;3.67;74.26
7268;BME280;3675;43.276;27.962;2024-02-04T00:34:40;98177.75;;;3.69;74.11
7268;BME280;3675;43.276;27.962;2024-02-04T00:37:14;98174.41;;;3.67;74.10
7268;BME280;3675;43.276;27.962;2024-02-04T00:39:47;98173.50;;;3.70;74.00
7268;BME280;3675;43.276;27.962;2024-02-04T00:42:28;98175.19;;;3.69;74.00
7268;BME280;3675;43.276;27.962;2024-02-04T00:45:00;98172.63;;;3.69;73.86
7268;BME280;3675;43.276;27.962;2024-02-04T00:47:40;98170.16;;;3.66;74.15
7268;BME280;3675;43.276;27.962;2024-02-04T00:50:15;98164.09;;;3.72;73.96
7268;BME280;3675;43.276;27.962;2024-02-04T00:52:50;98163.28;;;3.68;74.37
7268;BME280;3675;43.276;27.962;2024-02-04T00:55:22;98161.56;;;3.70;74.46
7268;BME280;3675;43.276;27.962;2024-02-04T00:57:56;98158.09;;;3.73;74.19
7268;BME280;3675;43.276;27.962;2024-02-04T01:00:30;98154.69;;;3.72;74.50
7268;BME280;3675;43.276;27.962;2024-02-04T01:03:03;98152.13;;;3.72;74.61
7268;BME280;3675;43.276;27.962;2024-02-04T01:08:20;98155.44;;;3.77;74.63
7268;BME280;3675;43.276;27.962;2024-02-04T01:10:54;98162.25;;;3.78;74.32
7268;BME280;3675;43.276;27.962;2024-02-04T01:13:25;98155.56;;;3.71;74.89
7268;BME280;3675;43.276;27.962;2024-02-04T01:15:58;98161.47;;;3.75;74.69
7268;BME280;3675;43.276;27.962;2024-02-04T01:18:33;98160.56;;;3.79;74.93
7268;BME280;3675;43.276;27.962;2024-02-04T01:21:10;98163.97;;;3.76;74.83
7268;BME280;3675;43.276;27.962;2024-02-04T01:23:41;98158.88;;;3.76;74.91
7268;BME280;3675;43.276;27.962;2024-02-04T01:26:18;98155.50;;;3.74;74.74
7268;BME280;3675;43.276;27.962;2024-02-04T01:28:54;98151.25;;;3.73;74.82
7268;BME280;3675;43.276;27.962;2024-02-04T01:31:25;98154.66;;;3.75;74.69
7268;BME280;3675;43.276;27.962;2024-02-04T01:34:09;98150.31;;;3.80;74.68
7268;BME280;3675;43.276;27.962;2024-02-04T01:36:44;98142.63;;;3.80;74.36
7268;BME280;3675;43.276;27.962;2024-02-04T01:39:16;98151.78;;;3.92;74.03
7268;BME280;3675;43.276;27.962;2024-02-04T01:41:48;98138.94;;;3.96;73.86
7268;BME280;3675;43.276;27.962;2024-02-04T01:44:29;98136.31;;;3.99;73.83
7268;BME280;3675;43.276;27.962;2024-02-04T01:47:01;98127.81;;;3.97;73.59
7268;BME280;3675;43.276;27.962;2024-02-04T01:49:33;98115.72;;;4.05;73.34
7268;BME280;3675;43.276;27.962;2024-02-04T01:52:12;98118.97;;;4.15;73.15
7268;BME280;3675;43.276;27.962;2024-02-04T01:54:47;98110.34;;;4.19;72.75
7268;BME280;3675;43.276;27.962;2024-02-04T01:57:20;98101.75;;;4.22;72.33
7268;BME280;3675;43.276;27.962;2024-02-04T01:59:56;98112.78;;;4.25;72.37
7268;BME280;3675;43.276;27.962;2024-02-04T02:02:32;98106.00;;;4.24;72.36
7268;BME280;3675;43.276;27.962;2024-02-04T02:05:06;98102.41;;;4.33;72.01
7268;BME280;3675;43.276;27.962;2024-02-04T02:07:45;98104.13;;;4.32;72.26
7268;BME280;3675;43.276;27.962;2024-02-04T02:10:19;98104.81;;;4.39;71.78
7268;BME280;3675;43.276;27.962;2024-02-04T02:12:59;98097.88;;;4.45;71.42
7268;BME280;3675;43.276;27.962;2024-02-04T02:15:35;98096.91;;;4.51;71.03
7268;BME280;3675;43.276;27.962;2024-02-04T02:18:14;98094.22;;;4.57;70.99
7268;BME280;3675;43.276;27.962;2024-02-04T02:21:26;98090.66;;;4.64;70.87
7268;BME280;3675;43.276;27.962;2024-02-04T02:24:11;98093.81;;;4.75;70.44
7268;BME280;3675;43.276;27.962;2024-02-04T02:26:46;98089.31;;;4.86;70.30
7268;BME280;3675;43.276;27.962;2024-02-04T02:29:18;98082.28;;;4.94;69.73
7268;BME280;3675;43.276;27.962;2024-02-04T02:31:54;98080.41;;;5.01;69.40
7268;BME280;3675;43.276;27.962;2024-02-04T02:34:27;98077.69;;;5.09;69.16
7268;BME280;3675;43.276;27.962;2024-02-04T02:37:12;98084.47;;;5.11;69.20
7268;BME280;3675;43.276;27.962;2024-02-04T02:39:58;98090.44;;;5.12;68.93
7268;BME280;3675;43.276;27.962;2024-02-04T02:42:36;98095.47;;;5.15;69.03
7268;BME280;3675;43.276;27.962;2024-02-04T02:45:09;98098.88;;;5.17;68.69
7268;BME280;3675;43.276;27.962;2024-02-04T02:47:45;98093.75;;;5.15;69.14
7268;BME280;3675;43.276;27.962;2024-02-04T02:50:18;98104.84;;;5.16;69.00
7268;BME280;3675;43.276;27.962;2024-02-04T02:52:50;98098.91;;;5.14;69.20
7268;BME280;3675;43.276;27.962;2024-02-04T02:55:25;98101.47;;;5.14;69.22
7268;BME280;3675;43.276;27.962;2024-02-04T02:58:00;98098.09;;;5.13;69.37
7268;BME280;3675;43.276;27.962;2024-02-04T03:00:32;98102.28;;;5.16;69.51
7268;BME280;3675;43.276;27.962;2024-02-04T03:03:04;98121.06;;;5.18;69.19
7268;BME280;3675;43.276;27.962;2024-02-04T03:05:36;98118.44;;;5.19;69.35
7268;BME280;3675;43.276;27.962;2024-02-04T03:08:08;98124.50;;;5.17;69.23
7268;BME280;3675;43.276;27.962;2024-02-04T03:10:42;98128.66;;;5.21;69.02
7268;BME280;3675;43.276;27.962;2024-02-04T03:13:18;98117.59;;;5.19;69.33
7268;BME280;3675;43.276;27.962;2024-02-04T03:15:50;98114.97;;;5.22;69.47
7268;BME280;3675;43.276;27.962;2024-02-04T03:18:27;98113.28;;;5.21;69.76
7268;BME280;3675;43.276;27.962;2024-02-04T03:21:02;98109.84;;;5.22;69.71
7268;BME280;3675;43.276;27.962;2024-02-04T03:23:33;98116.63;;;5.23;69.72
7268;BME280;3675;43.276;27.962;2024-02-04T03:26:06;98108.91;;;5.26;69.74
7268;BME280;3675;43.276;27.962;2024-02-04T03:28:43;98108.00;;;5.27;69.80
7268;BME280;3675;43.276;27.962;2024-02-04T03:31:24;98102.84;;;5.28;69.81
7268;BME280;3675;43.276;27.962;2024-02-04T03:33:55;98104.53;;;5.29;69.62
7268;BME280;3675;43.276;27.962;2024-02-04T03:36:30;98106.25;;;5.29;69.65
7268;BME280;3675;43.276;27.962;2024-02-04T03:39:02;98102.75;;;5.31;69.67
7268;BME280;3675;43.276;27.962;2024-02-04T03:41:34;98101.94;;;5.31;70.18
7268;BME280;3675;43.276;27.962;2024-02-04T03:44:09;98101.94;;;5.31;70.11
7268;BME280;3675;43.276;27.962;2024-02-04T03:46:42;98109.69;;;5.28;70.60
7268;BME280;3675;43.276;27.962;2024-02-04T03:49:19;98098.81;;;5.18;71.22
7268;BME280;3675;43.276;27.962;2024-02-04T03:51:52;98099.72;;;5.17;71.44
7268;BME280;3675;43.276;27.962;2024-02-04T03:54:27;98103.31;;;5.09;71.78
7268;BME280;3675;43.276;27.962;2024-02-04T03:56:59;98101.59;;;5.09;72.14
7268;BME280;3675;43.276;27.962;2024-02-04T03:59:37;98109.34;;;5.06;72.60
7268;BME280;3675;43.276;27.962;2024-02-04T04:02:16;98109.34;;;5.06;73.00
7268;BME280;3675;43.276;27.962;2024-02-04T04:04:48;98094.91;;;5.04;72.85
7268;BME280;3675;43.276;27.962;2024-02-04T04:07:21;98097.50;;;5.02;73.58
7268;BME280;3675;43.276;27.962;2024-02-04T04:09:55;98093.94;;;5.08;73.27
7268;BME280;3675;43.276;27.962;2024-02-04T04:12:32;98096.53;;;5.06;73.50
7268;BME280;3675;43.276;27.962;2024-02-04T04:15:07;98092.34;;;5.04;73.70
7268;BME280;3675;43.276;27.962;2024-02-04T04:17:39;98092.28;;;5.05;73.84
7268;BME280;3675;43.276;27.962;2024-02-04T04:20:11;98098.25;;;5.06;74.03
7268;BME280;3675;43.276;27.962;2024-02-04T04:22:43;98099.06;;;5.08;74.07
7268;BME280;3675;43.276;27.962;2024-02-04T04:25:16;98092.19;;;5.10;74.30
7268;BME280;3675;43.276;27.962;2024-02-04T04:27:49;98099.06;;;5.08;74.23
7268;BME280;3675;43.276;27.962;2024-02-04T04:30:28;98095.63;;;5.09;74.43
7268;BME280;3675;43.276;27.962;2024-02-04T04:33:00;98098.13;;;5.12;74.41
7268;BME280;3675;43.276;27.962;2024-02-04T04:35:32;98086.94;;;5.14;74.41
7268;BME280;3675;43.276;27.962;2024-02-04T04:38:04;98087.78;;;5.15;74.48
7268;BME280;3675;43.276;27.962;2024-02-04T04:40:35;98092.06;;;5.14;74.20
7268;BME280;3675;43.276;27.962;2024-02-04T04:43:11;98085.28;;;5.13;74.35
7268;BME280;3675;43.276;27.962;2024-02-04T04:45:46;98087.75;;;5.16;74.26
7268;BME280;3675;43.276;27.962;2024-02-04T04:48:21;98087.69;;;5.19;74.19
7268;BME280;3675;43.276;27.962;2024-02-04T04:50:53;98095.38;;;5.19;74.46
7268;BME280;3675;43.276;27.962;2024-02-04T04:53:25;98098.81;;;5.18;74.49
7268;BME280;3675;43.276;27.962;2024-02-04T04:55:59;98100.38;;;5.24;74.50
7268;BME280;3675;43.276;27.962;2024-02-04T04:58:39;98098.69;;;5.23;74.50
7268;BME280;3675;43.276;27.962;2024-02-04T05:01:16;98101.13;;;5.29;74.39
7268;BME280;3675;43.276;27.962;2024-02-04T05:03:48;98100.19;;;5.31;74.47
7268;BME280;3675;43.276;27.962;2024-02-04T05:06:20;98095.03;;;5.33;74.19
7268;BME280;3675;43.276;27.962;2024-02-04T05:08:52;98105.31;;;5.33;74.80
7268;BME280;3675;43.276;27.962;2024-02-04T05:11:26;98097.63;;;5.33;74.75
7268;BME280;3675;43.276;27.962;2024-02-04T05:13:58;98100.06;;;5.37;74.41
7268;BME280;3675;43.276;27.962;2024-02-04T05:16:36;98094.84;;;5.40;74.46
7268;BME280;3675;43.276;27.962;2024-02-04T05:19:11;98106.69;;;5.46;74.66
7268;BME280;3675;43.276;27.962;2024-02-04T05:22:02;98107.41;;;5.53;74.35
7268;BME280;3675;43.276;27.962;2024-02-04T05:24:36;98102.28;;;5.53;74.27
7268;BME280;3675;43.276;27.962;2024-02-04T05:27:12;98109.75;;;5.60;74.25
7268;BME280;3675;43.276;27.962;2024-02-04T05:29:49;98101.88;;;5.68;74.19
7268;BME280;3675;43.276;27.962;2024-02-04T05:32:28;98092.44;;;5.70;74.49
7268;BME280;3675;43.276;27.962;2024-02-04T05:35:01;98085.50;;;5.72;74.53
7268;BME280;3675;43.276;27.962;2024-02-04T05:37:33;98083.72;;;5.75;74.00
7268;BME280;3675;43.276;27.962;2024-02-04T05:40:07;98086.16;;;5.80;73.87
7268;BME280;3675;43.276;27.962;2024-02-04T05:42:41;98080.91;;;5.84;73.88
7268;BME280;3675;43.276;27.962;2024-02-04T05:45:16;98075.78;;;5.84;73.87
7268;BME280;3675;43.276;27.962;2024-02-04T05:47:59;98085.03;;;5.92;73.50
7268;BME280;3675;43.276;27.962;2024-02-04T05:50:40;98083.25;;;5.94;73.75
7268;BME280;3675;43.276;27.962;2024-02-04T05:53:14;98085.78;;;5.95;73.75
7268;BME280;3675;43.276;27.962;2024-02-04T05:55:52;98091.56;;;6.03;73.19
7268;BME280;3675;43.276;27.962;2024-02-04T05:58:24;98089.63;;;6.11;72.68
7268;BME280;3675;43.276;27.962;2024-02-04T06:00:56;98088.75;;;6.12;72.86
7268;BME280;3675;43.276;27.962;2024-02-04T06:03:35;98083.47;;;6.18;72.56
7268;BME280;3675;43.276;27.962;2024-02-04T06:06:08;98088.50;;;6.21;72.31
7268;BME280;3675;43.276;27.962;2024-02-04T06:08:41;98090.94;;;6.26;72.51
7268;BME280;3675;43.276;27.962;2024-02-04T06:11:19;98090.84;;;6.29;72.18
7268;BME280;3675;43.276;27.962;2024-02-04T06:13:54;98096.69;;;6.34;72.04
7268;BME280;3675;43.276;27.962;2024-02-04T06:16:38;98093.25;;;6.35;71.99
7268;BME280;3675;43.276;27.962;2024-02-04T06:19:12;98097.31;;;6.42;71.61
7268;BME280;3675;43.276;27.962;2024-02-04T06:21:44;98107.66;;;6.41;71.94
7268;BME280;3675;43.276;27.962;2024-02-04T06:24:26;98104.03;;;6.46;71.51
7268;BME280;3675;43.276;27.962;2024-02-04T06:27:03;98104.00;;;6.48;71.51
7268;BME280;3675;43.276;27.962;2024-02-04T06:29:36;98110.84;;;6.49;71.70
7268;BME280;3675;43.276;27.962;2024-02-04T06:32:10;98103.84;;;6.54;71.66
7268;BME280;3675;43.276;27.962;2024-02-04T06:34:46;98118.50;;;6.50;71.42
7268;BME280;3675;43.276;27.962;2024-02-04T06:37:28;98126.84;;;6.58;71.66
7268;BME280;3675;43.276;27.962;2024-02-04T06:40:07;98126.09;;;6.55;71.57
7268;BME280;3675;43.276;27.962;2024-02-04T06:42:40;98132.75;;;6.60;71.79
7268;BME280;3675;43.276;27.962;2024-02-04T06:45:13;98121.63;;;6.60;71.45
7268;BME280;3675;43.276;27.962;2024-02-04T06:47:44;98130.03;;;6.66;71.40
7268;BME280;3675;43.276;27.962;2024-02-04T06:50:26;98129.19;;;6.66;71.33
7268;BME280;3675;43.276;27.962;2024-02-04T06:53:03;98125.50;;;6.74;71.11
7268;BME280;3675;43.276;27.962;2024-02-04T06:55:40;98113.47;;;6.76;70.88
7268;BME280;3675;43.276;27.962;2024-02-04T06:58:14;98117.75;;;6.76;70.96
7268;BME280;3675;43.276;27.962;2024-02-04T07:00:46;98122.84;;;6.77;71.15
7268;BME280;3675;43.276;27.962;2024-02-04T07:03:32;98115.97;;;6.78;70.91
7268;BME280;3675;43.276;27.962;2024-02-04T07:06:07;98120.19;;;6.81;70.95
7268;BME280;3675;43.276;27.962;2024-02-04T07:08:43;98123.59;;;6.81;71.08
7268;BME280;3675;43.276;27.962;2024-02-04T07:11:19;98118.38;;;6.84;71.15
7268;BME280;3675;43.276;27.962;2024-02-04T07:13:56;98130.09;;;6.93;71.13
7268;BME280;3675;43.276;27.962;2024-02-04T07:16:44;98129.16;;;6.95;71.06
7268;BME280;3675;43.276;27.962;2024-02-04T07:19:16;98121.13;;;7.06;70.72
7268;BME280;3675;43.276;27.962;2024-02-04T07:21:59;98118.41;;;7.10;70.45
7268;BME280;3675;43.276;27.962;2024-02-04T07:24:34;98119.88;;;7.19;70.48
7268;BME280;3675;43.276;27.962;2024-02-04T07:27:07;98125.75;;;7.22;70.34
7268;BME280;3675;43.276;27.962;2024-02-04T07:29:40;98125.03;;;7.17;69.89
7268;BME280;3675;43.276;27.962;2024-02-04T07:32:32;98118.03;;;7.22;69.62
7268;BME280;3675;43.276;27.962;2024-02-04T07:35:10;98111.03;;;7.28;69.80
7268;BME280;3675;43.276;27.962;2024-02-04T07:37:45;98110.09;;;7.30;69.79
7268;BME280;3675;43.276;27.962;2024-02-04T07:40:24;98109.00;;;7.37;69.66
7268;BME280;3675;43.276;27.962;2024-02-04T07:43:00;98096.00;;;7.42;69.99
7268;BME280;3675;43.276;27.962;2024-02-04T07:45:42;98087.03;;;7.53;69.22
7268;BME280;3675;43.276;27.962;2024-02-04T07:48:18;98074.75;;;7.61;69.56
7268;BME280;3675;43.276;27.962;2024-02-04T07:50:56;98080.59;;;7.66;68.26
7268;BME280;3675;43.276;27.962;2024-02-04T07:53:35;98084.13;;;7.64;68.93
7268;BME280;3675;43.276;27.962;2024-02-04T07:56:11;98109.72;;;7.67;68.60
7268;BME280;3675;43.276;27.962;2024-02-04T07:58:45;98111.47;;;7.66;68.51
7268;BME280;3675;43.276;27.962;2024-02-04T08:01:21;98119.34;;;7.62;68.58
7268;BME280;3675;43.276;27.962;2024-02-04T08:03:54;98122.06;;;7.57;68.89
7268;BME280;3675;43.276;27.962;2024-02-04T08:06:27;98121.13;;;7.60;68.87
7268;BME280;3675;43.276;27.962;2024-02-04T08:09:07;98115.19;;;7.58;68.86
7268;BME280;3675;43.276;27.962;2024-02-04T08:11:40;98104.16;;;7.54;68.41
7268;BME280;3675;43.276;27.962;2024-02-04T08:14:11;98117.91;;;7.53;68.82
7268;BME280;3675;43.276;27.962;2024-02-04T08:16:44;98123.13;;;7.52;69.02
7268;BME280;3675;43.276;27.962;2024-02-04T08:19:29;98114.31;;;7.59;68.60
7268;BME280;3675;43.276;27.962;2024-02-04T08:22:02;98119.28;;;7.63;68.37
7268;BME280;3675;43.276;27.962;2024-02-04T08:24:37;98117.41;;;7.68;68.43
7268;BME280;3675;43.276;27.962;2024-02-04T08:27:11;98107.75;;;7.75;68.43
7268;BME280;3675;43.276;27.962;2024-02-04T08:29:48;98099.72;;;7.84;68.13
7268;BME280;3675;43.276;27.962;2024-02-04T08:32:31;98100.38;;;7.91;68.17
7268;BME280;3675;43.276;27.962;2024-02-04T08:35:04;98107.09;;;7.95;67.94
7268;BME280;3675;43.276;27.962;2024-02-04T08:37:38;98101.13;;;7.93;68.26
7268;BME280;3675;43.276;27.962;2024-02-04T08:40:12;98105.13;;;8.01;67.38
7268;BME280;3675;43.276;27.962;2024-02-04T08:42:44;98100.47;;;8.12;66.73
7268;BME280;3675;43.276;27.962;2024-02-04T08:45:17;98095.59;;;8.28;67.08
7268;BME280;3675;43.276;27.962;2024-02-04T08:47:50;98092.34;;;8.48;66.35
7268;BME280;3675;43.276;27.962;2024-02-04T08:50:22;98091.84;;;8.62;65.86
7268;BME280;3675;43.276;27.962;2024-02-04T08:52:54;98089.97;;;8.65;65.43
7268;BME280;3675;43.276;27.962;2024-02-04T08:55:35;98097.41;;;8.73;65.24
7268;BME280;3675;43.276;27.962;2024-02-04T08:58:11;98091.19;;;8.78;65.19
7268;BME280;3675;43.276;27.962;2024-02-04T09:00:43;98098.75;;;8.83;64.92
7268;BME280;3675;43.276;27.962;2024-02-04T09:03:15;98094.28;;;8.88;64.73
7268;BME280;3675;43.276;27.962;2024-02-04T09:05:52;98093.22;;;8.93;64.41
7268;BME280;3675;43.276;27.962;2024-02-04T09:08:27;98099.31;;;8.91;64.41
7268;BME280;3675;43.276;27.962;2024-02-04T09:11:10;98095.97;;;8.89;64.11
7268;BME280;3675;43.276;27.962;2024-02-04T09:13:55;98098.72;;;8.84;64.46
7268;BME280;3675;43.276;27.962;2024-02-04T09:16:30;98095.28;;;8.84;64.35
7268;BME280;3675;43.276;27.962;2024-02-04T09:19:06;98090.97;;;8.84;64.45
7268;BME280;3675;43.276;27.962;2024-02-04T09:21:42;98079.81;;;8.84;64.32
7268;BME280;3675;43.276;27.962;2024-02-04T09:24:16;98078.63;;;8.92;63.31
7268;BME280;3675;43.276;27.962;2024-02-04T09:26:56;98071.19;;;8.85;63.23
7268;BME280;3675;43.276;27.962;2024-02-04T09:29:27;98064.34;;;8.84;63.32
7268;BME280;3675;43.276;27.962;2024-02-04T09:32:00;98060.94;;;8.83;62.90
7268;BME280;3675;43.276;27.962;2024-02-04T09:34:32;98063.34;;;8.88;62.95
7268;BME280;3675;43.276;27.962;2024-02-04T09:37:05;98053.31;;;9.02;63.72
7268;BME280;3675;43.276;27.962;2024-02-04T09:39:38;98052.88;;;9.13;63.08
7268;BME280;3675;43.276;27.962;2024-02-04T09:42:20;98053.31;;;9.24;61.81
7268;BME280;3675;43.276;27.962;2024-02-04T09:44:58;98038.50;;;9.29;60.65
7268;BME280;3675;43.276;27.962;2024-02-04T09:47:33;98043.28;;;9.38;60.97
7268;BME280;3675;43.276;27.962;2024-02-04T09:50:09;98046.66;;;9.38;60.73
7268;BME280;3675;43.276;27.962;2024-02-04T09:52:49;98040.28;;;9.47;61.13
7268;BME280;3675;43.276;27.962;2024-02-04T09:55:25;98041.06;;;9.69;61.24
7268;BME280;3675;43.276;27.962;2024-02-04T09:58:07;98032.88;;;10.20;60.09
7268;BME280;3675;43.276;27.962;2024-02-04T10:00:48;98021.78;;;10.56;57.92
7268;BME280;3675;43.276;27.962;2024-02-04T10:03:27;98013.59;;;10.65;57.45
7268;BME280;3675;43.276;27.962;2024-02-04T10:05:59;98017.56;;;10.72;57.57
7268;BME280;3675;43.276;27.962;2024-02-04T10:08:35;98002.41;;;11.00;57.38
7268;BME280;3675;43.276;27.962;2024-02-04T10:11:15;97991.19;;;11.36;55.02
7268;BME280;3675;43.276;27.962;2024-02-04T10:13:52;98002.06;;;11.59;53.92
7268;BME280;3675;43.276;27.962;2024-02-04T10:16:26;98007.13;;;11.95;53.50
7268;BME280;3675;43.276;27.962;2024-02-04T10:19:05;98022.44;;;12.00;52.39
7268;BME280;3675;43.276;27.962;2024-02-04T10:21:41;98015.63;;;11.82;52.99
7268;BME280;3675;43.276;27.962;2024-02-04T10:24:14;98021.28;;;11.73;53.63
7268;BME280;3675;43.276;27.962;2024-02-04T10:26:55;98021.78;;;11.62;53.86
7268;BME280;3675;43.276;27.962;2024-02-04T10:29:34;98027.16;;;11.76;54.21
7268;BME280;3675;43.276;27.962;2024-02-04T10:32:10;98021.63;;;11.82;53.20
7268;BME280;3675;43.276;27.962;2024-02-04T10:34:57;98020.56;;;11.86;53.60
7268;BME280;3675;43.276;27.962;2024-02-04T10:37:36;98032.75;;;11.67;54.15
7268;BME280;3675;43.276;27.962;2024-02-04T10:40:09;98034.28;;;11.71;54.35
7268;BME280;3675;43.276;27.962;2024-02-04T10:42:42;98020.34;;;11.56;55.15
7268;BME280;3675;43.276;27.962;2024-02-04T10:45:18;98022.53;;;11.30;54.56
7268;BME280;3675;43.276;27.962;2024-02-04T10:47:57;98021.16;;;11.22;55.55
7268;BME280;3675;43.276;27.962;2024-02-04T10:50:35;98024.03;;;11.16;56.10
7268;BME280;3675;43.276;27.962;2024-02-04T10:53:14;98008.97;;;11.24;56.44
7268;BME280;3675;43.276;27.962;2024-02-04T10:55:47;98012.81;;;11.35;55.38
7268;BME280;3675;43.276;27.962;2024-02-04T10:58:23;98016.38;;;11.32;55.47
7268;BME280;3675;43.276;27.962;2024-02-04T11:01:01;98011.97;;;11.34;56.49
7268;BME280;3675;43.276;27.962;2024-02-04T11:03:36;98011.56;;;11.24;55.83
7268;BME280;3675;43.276;27.962;2024-02-04T11:06:10;98016.50;;;11.12;55.93
7268;BME280;3675;43.276;27.962;2024-02-04T11:08:44;98018.44;;;10.90;55.62
7268;BME280;3675;43.276;27.962;2024-02-04T11:11:18;98013.47;;;10.85;55.64
7268;BME280;3675;43.276;27.962;2024-02-04T11:14:01;98015.22;;;10.85;56.21
7268;BME280;3675;43.276;27.962;2024-02-04T11:19:53;98001.53;;;10.82;56.98
7268;BME280;3675;43.276;27.962;2024-02-04T11:22:44;98001.94;;;10.92;56.32
7268;BME280;3675;43.276;27.962;2024-02-04T11:25:42;98011.25;;;10.96;56.31
7268;BME280;3675;43.276;27.962;2024-02-04T11:28:15;98010.47;;;10.94;56.35
7268;BME280;3675;43.276;27.962;2024-02-04T11:30:58;98004.88;;;10.85;56.34
7268;BME280;3675;43.276;27.962;2024-02-04T11:33:39;97997.06;;;10.86;56.72
7268;BME280;3675;43.276;27.962;2024-02-04T11:36:17;98003.50;;;10.77;56.68
7268;BME280;3675;43.276;27.962;2024-02-04T11:38:52;98002.25;;;10.67;56.87
7268;BME280;3675;43.276;27.962;2024-02-04T11:41:26;97996.97;;;10.70;56.73
7268;BME280;3675;43.276;27.962;2024-02-04T11:44:00;97998.13;;;10.63;57.24
7268;BME280;3675;43.276;27.962;2024-02-04T11:46:34;97998.34;;;10.59;57.56
7268;BME280;3675;43.276;27.962;2024-02-04T11:49:19;97994.53;;;10.49;58.12
7268;BME280;3675;43.276;27.962;2024-02-04T11:51:56;98009.41;;;10.44;58.59
7268;BME280;3675;43.276;27.962;2024-02-04T11:54:31;98003.88;;;10.51;58.84
7268;BME280;3675;43.276;27.962;2024-02-04T11:57:09;98001.03;;;10.57;58.56
7268;BME280;3675;43.276;27.962;2024-02-04T11:59:43;97992.50;;;10.55;58.84
7268;BME280;3675;43.276;27.962;2024-02-04T12:02:21;98008.69;;;10.59;58.43
7268;BME280;3675;43.276;27.962;2024-02-04T12:05:06;98004.66;;;10.53;58.00
7268;BME280;3675;43.276;27.962;2024-02-04T12:07:42;98014.38;;;10.48;58.60
7268;BME280;3675;43.276;27.962;2024-02-04T12:10:16;98010.84;;;10.49;59.10
7268;BME280;3675;43.276;27.962;2024-02-04T12:12:54;98013.22;;;10.54;58.80
7268;BME280;3675;43.276;27.962;2024-02-04T12:15:31;98013.19;;;10.55;58.78
7268;BME280;3675;43.276;27.962;2024-02-04T12:18:10;98004.72;;;10.52;58.21
7268;BME280;3675;43.276;27.962;2024-02-04T12:20:47;98002.97;;;10.52;58.55
7268;BME280;3675;43.276;27.962;2024-02-04T12:23:27;97996.19;;;10.50;58.74
7268;BME280;3675;43.276;27.962;2024-02-04T12:26:01;98003.81;;;10.53;58.38
7268;BME280;3675;43.276;27.962;2024-02-04T12:28:34;98007.84;;;10.58;58.52
7268;BME280;3675;43.276;27.962;2024-02-04T12:31:07;98001.63;;;10.62;58.49
7268;BME280;3675;43.276;27.962;2024-02-04T12:33:40;98002.63;;;10.60;58.30
7268;BME280;3675;43.276;27.962;2024-02-04T12:36:19;97994.03;;;10.59;58.19
7268;BME280;3675;43.276;27.962;2024-02-04T12:38:56;97996.53;;;10.61;58.28
7268;BME280;3675;43.276;27.962;2024-02-04T12:41:33;97980.41;;;10.56;57.80
7268;BME280;3675;43.276;27.962;2024-02-04T12:44:09;97982.84;;;10.59;58.34
7268;BME280;3675;43.276;27.962;2024-02-04T12:46:42;97979.84;;;10.49;58.08
7268;BME280;3675;43.276;27.962;2024-02-04T12:49:21;97978.59;;;10.39;58.34
7268;BME280;3675;43.276;27.962;2024-02-04T12:52:07;97971.81;;;10.36;59.06
7268;BME280;3675;43.276;27.962;2024-02-04T12:54:44;97976.03;;;10.39;59.02
7268;BME280;3675;43.276;27.962;2024-02-04T12:57:36;97983.00;;;10.37;59.48
7268;BME280;3675;43.276;27.962;2024-02-04T13:00:09;97982.34;;;10.32;58.83
7268;BME280;3675;43.276;27.962;2024-02-04T13:02:43;97987.47;;;10.33;58.73
7268;BME280;3675;43.276;27.962;2024-02-04T13:05:26;97991.53;;;10.39;58.77
7268;BME280;3675;43.276;27.962;2024-02-04T13:08:12;97995.06;;;10.36;58.79
7268;BME280;3675;43.276;27.962;2024-02-04T13:10:47;97988.38;;;10.32;58.84
7268;BME280;3675;43.276;27.962;2024-02-04T13:13:25;97983.72;;;10.22;59.25
7268;BME280;3675;43.276;27.962;2024-02-04T13:16:04;97990.69;;;10.20;59.58
7268;BME280;3675;43.276;27.962;2024-02-04T13:18:37;97990.31;;;10.27;59.32
7268;BME280;3675;43.276;27.962;2024-02-04T13:21:09;97981.66;;;10.28;59.02
7268;BME280;3675;43.276;27.962;2024-02-04T13:23:46;97993.91;;;10.25;59.28
7268;BME280;3675;43.276;27.962;2024-02-04T13:26:18;97994.31;;;10.16;59.52
7268;BME280;3675;43.276;27.962;2024-02-04T13:28:55;97989.84;;;10.19;59.41
7268;BME280;3675;43.276;27.962;2024-02-04T13:31:29;97971.00;;;10.17;58.87
7268;BME280;3675;43.276;27.962;2024-02-04T13:34:06;97970.31;;;10.12;58.85
7268;BME280;3675;43.276;27.962;2024-02-04T13:36:39;97964.16;;;10.15;59.02
7268;BME280;3675;43.276;27.962;2024-02-04T13:39:15;97969.50;;;10.12;59.45
7268;BME280;3675;43.276;27.962;2024-02-04T13:41:48;97968.78;;;10.08;59.06
7268;BME280;3675;43.276;27.962;2024-02-04T13:44:20;97983.38;;;10.09;59.23
7268;BME280;3675;43.276;27.962;2024-02-04T13:46:53;97970.59;;;10.06;58.87
7268;BME280;3675;43.276;27.962;2024-02-04T13:49:34;97975.13;;;10.01;59.60
7268;BME280;3675;43.276;27.962;2024-02-04T13:52:08;97978.06;;;10.12;59.40
7268;BME280;3675;43.276;27.962;2024-02-04T13:54:43;97971.38;;;10.08;59.00
7268;BME280;3675;43.276;27.962;2024-02-04T13:57:14;97961.03;;;10.08;59.12
7268;BME280;3675;43.276;27.962;2024-02-04T13:59:47;97977.97;;;10.15;59.10
7268;BME280;3675;43.276;27.962;2024-02-04T14:02:23;97981.91;;;10.04;59.52
7268;BME280;3675;43.276;27.962;2024-02-04T14:04:58;97994.53;;;10.10;59.29
7268;BME280;3675;43.276;27.962;2024-02-04T14:07:33;97987.78;;;10.07;59.72
7268;BME280;3675;43.276;27.962;2024-02-04T14:10:08;97996.16;;;10.12;59.14